sensor_id;sensor_type;location;lat;lon;timestamp;pressure;altitude;pressure_sealevel;temperature;humidity
58757;BME280;44527;47.460;19.016;2022-07-12T00:02:54;100665.66;;;14.65;53.30
58757;BME280;44527;47.460;19.016;2022-07-12T00:05:58;100675.97;;;14.68;53.34
58757;BME280;44527;47.460;19.016;2022-07-12T00:09:06;100671.91;;;14.64;53.57
58757;BME280;44527;47.460;19.016;2022-07-12T00:12:10;100674.06;;;14.70;53.54
58757;BME280;44527;47.460;19.016;2022-07-12T00:15:12;100669.03;;;14.67;53.54
58757;BME280;44527;47.460;19.016;2022-07-12T00:18:15;100666.63;;;14.64;53.73
58757;BME280;44527;47.460;19.016;2022-07-12T00:21:19;100665.62;;;14.54;53.97
58757;BME280;44527;47.460;19.016;2022-07-12T00:24:21;100667.87;;;14.47;54.36
58757;BME280;44527;47.460;19.016;2022-07-12T00:27:24;100663.34;;;14.49;54.25
58757;BME280;44527;47.460;19.016;2022-07-12T00:30:27;100665.34;;;14.34;54.70
58757;BME280;44527;47.460;19.016;2022-07-12T00:33:30;100666.53;;;14.19;55.19
58757;BME280;44527;47.460;19.016;2022-07-12T00:36:37;100659.72;;;14.28;55.07
58757;BME280;44527;47.460;19.016;2022-07-12T00:39:39;100663.69;;;14.33;54.88
58757;BME280;44527;47.460;19.016;2022-07-12T00:42:41;100659.09;;;14.35;54.89
58757;BME280;44527;47.460;19.016;2022-07-12T00:45:44;100674.72;;;14.38;54.88
58757;BME280;44527;47.460;19.016;2022-07-12T00:48:46;100682.16;;;14.33;54.99
58757;BME280;44527;47.460;19.016;2022-07-12T00:51:49;100672.31;;;14.35;55.01
58757;BME280;44527;47.460;19.016;2022-07-12T00:54:52;100674.34;;;14.32;55.18
58757;BME280;44527;47.460;19.016;2022-07-12T00:57:55;100669.56;;;14.37;55.19
58757;BME280;44527;47.460;19.016;2022-07-12T01:00:58;100676.88;;;14.44;54.88
58757;BME280;44527;47.460;19.016;2022-07-12T01:04:01;100687.06;;;14.38;55.10
58757;BME280;44527;47.460;19.016;2022-07-12T01:07:04;100680.72;;;14.40;55.08
58757;BME280;44527;47.460;19.016;2022-07-12T01:10:07;100689.62;;;14.39;55.34
58757;BME280;44527;47.460;19.016;2022-07-12T01:13:13;100692.13;;;14.30;55.59
58757;BME280;44527;47.460;19.016;2022-07-12T01:16:16;100690.78;;;14.35;55.45
58757;BME280;44527;47.460;19.016;2022-07-12T01:19:20;100679.06;;;14.39;55.14
58757;BME280;44527;47.460;19.016;2022-07-12T01:22:30;100681.63;;;14.17;55.86
58757;BME280;44527;47.460;19.016;2022-07-12T01:25:33;100677.19;;;14.06;56.21
58757;BME280;44527;47.460;19.016;2022-07-12T01:28:36;100673.59;;;14.18;55.99
58757;BME280;44527;47.460;19.016;2022-07-12T01:31:38;100675.75;;;14.13;56.10
58757;BME280;44527;47.460;19.016;2022-07-12T01:34:41;100665.41;;;14.10;56.29
58757;BME280;44527;47.460;19.016;2022-07-12T01:37:43;100670.47;;;14.13;56.21
58757;BME280;44527;47.460;19.016;2022-07-12T01:40:46;100665.78;;;14.06;56.64
58757;BME280;44527;47.460;19.016;2022-07-12T01:43:51;100659.78;;;14.03;56.51
58757;BME280;44527;47.460;19.016;2022-07-12T01:46:53;100659.03;;;14.01;57.06
58757;BME280;44527;47.460;19.016;2022-07-12T01:49:58;100662.41;;;14.03;57.20
58757;BME280;44527;47.460;19.016;2022-07-12T01:53:01;100657.06;;;13.81;57.60
58757;BME280;44527;47.460;19.016;2022-07-12T01:56:07;100650.53;;;13.74;58.15
58757;BME280;44527;47.460;19.016;2022-07-12T01:59:09;100654.59;;;13.67;58.16
58757;BME280;44527;47.460;19.016;2022-07-12T02:02:14;100654.78;;;13.52;58.71
58757;BME280;44527;47.460;19.016;2022-07-12T02:05:17;100658.28;;;13.53;58.73
58757;BME280;44527;47.460;19.016;2022-07-12T02:08:22;100641.66;;;13.64;58.56
58757;BME280;44527;47.460;19.016;2022-07-12T02:11:24;100653.31;;;13.72;58.53
58757;BME280;44527;47.460;19.016;2022-07-12T02:14:27;100650.37;;;13.64;58.50
58757;BME280;44527;47.460;19.016;2022-07-12T02:17:30;100651.59;;;13.60;58.74
58757;BME280;44527;47.460;19.016;2022-07-12T02:20:32;100649.41;;;13.54;59.06
58757;BME280;44527;47.460;19.016;2022-07-12T02:23:35;100647.72;;;13.53;59.16
58757;BME280;44527;47.460;19.016;2022-07-12T02:26:37;100653.59;;;13.56;59.10
58757;BME280;44527;47.460;19.016;2022-07-12T02:29:42;100655.97;;;13.48;59.38
58757;BME280;44527;47.460;19.016;2022-07-12T02:32:44;100658.97;;;13.55;59.29
58757;BME280;44527;47.460;19.016;2022-07-12T02:35:47;100650.91;;;13.45;59.53
58757;BME280;44527;47.460;19.016;2022-07-12T02:38:52;100656.00;;;13.36;60.08
58757;BME280;44527;47.460;19.016;2022-07-12T02:41:54;100659.62;;;13.35;59.87
58757;BME280;44527;47.460;19.016;2022-07-12T02:44:57;100659.19;;;13.28;60.20
58757;BME280;44527;47.460;19.016;2022-07-12T02:47:59;100661.13;;;13.26;60.32
58757;BME280;44527;47.460;19.016;2022-07-12T02:51:02;100661.00;;;13.27;60.16
58757;BME280;44527;47.460;19.016;2022-07-12T02:54:05;100659.41;;;13.25;60.32
58757;BME280;44527;47.460;19.016;2022-07-12T02:57:07;100665.88;;;13.08;61.00
58757;BME280;44527;47.460;19.016;2022-07-12T03:00:10;100672.31;;;12.91;61.54
58757;BME280;44527;47.460;19.016;2022-07-12T03:03:14;100666.84;;;12.94;61.69
58757;BME280;44527;47.460;19.016;2022-07-12T03:06:16;100670.53;;;13.04;61.47
58757;BME280;44527;47.460;19.016;2022-07-12T03:09:19;100674.06;;;13.29;60.84
58757;BME280;44527;47.460;19.016;2022-07-12T03:12:21;100668.19;;;13.49;60.11
58757;BME280;44527;47.460;19.016;2022-07-12T03:15:24;100672.13;;;13.44;60.52
58757;BME280;44527;47.460;19.016;2022-07-12T03:18:26;100672.75;;;13.47;60.49
58757;BME280;44527;47.460;19.016;2022-07-12T03:21:29;100680.66;;;13.47;60.59
58757;BME280;44527;47.460;19.016;2022-07-12T03:24:31;100666.12;;;13.66;60.17
58757;BME280;44527;47.460;19.016;2022-07-12T03:27:35;100674.75;;;13.68;60.18
58757;BME280;44527;47.460;19.016;2022-07-12T03:30:44;100675.53;;;13.81;59.68
58757;BME280;44527;47.460;19.016;2022-07-12T03:33:47;100672.16;;;13.79;59.93
58757;BME280;44527;47.460;19.016;2022-07-12T03:36:49;100679.28;;;13.90;59.86
58757;BME280;44527;47.460;19.016;2022-07-12T03:39:51;100682.31;;;13.96;59.59
58757;BME280;44527;47.460;19.016;2022-07-12T03:42:55;100684.72;;;13.99;59.62
58757;BME280;44527;47.460;19.016;2022-07-12T03:46:00;100682.91;;;14.00;59.53
58757;BME280;44527;47.460;19.016;2022-07-12T03:49:03;100679.66;;;13.96;59.40
58757;BME280;44527;47.460;19.016;2022-07-12T03:52:05;100682.31;;;13.96;60.22
58757;BME280;44527;47.460;19.016;2022-07-12T03:55:10;100682.16;;;13.87;62.17
58757;BME280;44527;47.460;19.016;2022-07-12T03:58:13;100687.84;;;14.05;63.29
58757;BME280;44527;47.460;19.016;2022-07-12T04:01:15;100683.78;;;14.12;59.73
58757;BME280;44527;47.460;19.016;2022-07-12T04:04:19;100692.13;;;14.30;59.36
58757;BME280;44527;47.460;19.016;2022-07-12T04:07:21;100686.38;;;14.36;59.63
58757;BME280;44527;47.460;19.016;2022-07-12T04:10:26;100684.87;;;14.56;59.29
58757;BME280;44527;47.460;19.016;2022-07-12T04:13:29;100688.94;;;14.60;59.31
58757;BME280;44527;47.460;19.016;2022-07-12T04:16:33;100690.53;;;14.74;62.41
58757;BME280;44527;47.460;19.016;2022-07-12T04:19:35;100691.34;;;14.74;62.08
58757;BME280;44527;47.460;19.016;2022-07-12T04:22:38;100692.56;;;14.92;61.30
58757;BME280;44527;47.460;19.016;2022-07-12T04:25:40;100689.53;;;15.08;61.63
58757;BME280;44527;47.460;19.016;2022-07-12T04:28:43;100689.03;;;15.26;60.61
58757;BME280;44527;47.460;19.016;2022-07-12T04:31:46;100696.09;;;15.48;60.01
58757;BME280;44527;47.460;19.016;2022-07-12T04:34:48;100695.34;;;15.68;58.48
58757;BME280;44527;47.460;19.016;2022-07-12T04:37:50;100699.19;;;15.96;58.29
58757;BME280;44527;47.460;19.016;2022-07-12T04:40:53;100695.66;;;17.70;54.31
58757;BME280;44527;47.460;19.016;2022-07-12T04:43:56;100698.66;;;20.35;46.99
58757;BME280;44527;47.460;19.016;2022-07-12T04:47:00;100698.97;;;24.00;39.07
58757;BME280;44527;47.460;19.016;2022-07-12T04:50:08;100706.03;;;27.46;32.88
58757;BME280;44527;47.460;19.016;2022-07-12T04:53:11;100709.53;;;29.51;27.46
58757;BME280;44527;47.460;19.016;2022-07-12T04:56:13;100709.38;;;30.78;25.76
58757;BME280;44527;47.460;19.016;2022-07-12T04:59:16;100708.06;;;32.43;24.55
58757;BME280;44527;47.460;19.016;2022-07-12T05:02:18;100708.06;;;33.47;22.42
58757;BME280;44527;47.460;19.016;2022-07-12T05:05:21;100716.44;;;34.20;21.94
58757;BME280;44527;47.460;19.016;2022-07-12T05:08:23;100717.44;;;34.52;20.88
58757;BME280;44527;47.460;19.016;2022-07-12T05:11:26;100717.22;;;35.15;19.45
58757;BME280;44527;47.460;19.016;2022-07-12T05:14:28;100718.41;;;35.78;18.39
58757;BME280;44527;47.460;19.016;2022-07-12T05:17:31;100719.22;;;36.48;17.81
58757;BME280;44527;47.460;19.016;2022-07-12T05:20:33;100721.75;;;36.55;18.74
58757;BME280;44527;47.460;19.016;2022-07-12T05:23:38;100729.81;;;36.77;17.38
58757;BME280;44527;47.460;19.016;2022-07-12T05:26:40;100730.69;;;37.91;16.80
58757;BME280;44527;47.460;19.016;2022-07-12T05:29:43;100725.47;;;37.69;16.63
58757;BME280;44527;47.460;19.016;2022-07-12T05:32:45;100723.19;;;37.31;16.35
58757;BME280;44527;47.460;19.016;2022-07-12T05:35:48;100739.75;;;38.02;15.98
58757;BME280;44527;47.460;19.016;2022-07-12T05:38:50;100737.97;;;38.88;16.30
58757;BME280;44527;47.460;19.016;2022-07-12T05:41:53;100736.13;;;37.51;19.07
58757;BME280;44527;47.460;19.016;2022-07-12T05:44:57;100732.03;;;38.35;17.81
58757;BME280;44527;47.460;19.016;2022-07-12T05:48:00;100731.31;;;39.04;15.43
58757;BME280;44527;47.460;19.016;2022-07-12T05:51:02;100745.72;;;38.50;17.10
58757;BME280;44527;47.460;19.016;2022-07-12T05:54:24;100738.34;;;38.41;17.47
58757;BME280;44527;47.460;19.016;2022-07-12T05:57:26;100734.72;;;38.66;16.64
58757;BME280;44527;47.460;19.016;2022-07-12T06:00:29;100734.12;;;38.89;18.09
58757;BME280;44527;47.460;19.016;2022-07-12T06:03:32;100743.56;;;39.22;16.34
58757;BME280;44527;47.460;19.016;2022-07-12T06:06:34;100732.06;;;39.99;16.13
58757;BME280;44527;47.460;19.016;2022-07-12T06:09:39;100736.00;;;40.22;14.30
58757;BME280;44527;47.460;19.016;2022-07-12T06:12:41;100737.59;;;39.10;16.61
58757;BME280;44527;47.460;19.016;2022-07-12T06:15:43;100724.50;;;39.86;14.42
58757;BME280;44527;47.460;19.016;2022-07-12T06:18:45;100729.78;;;38.68;15.56
58757;BME280;44527;47.460;19.016;2022-07-12T06:21:48;100719.06;;;35.90;17.07
58757;BME280;44527;47.460;19.016;2022-07-12T06:24:50;100727.06;;;34.77;19.26
58757;BME280;44527;47.460;19.016;2022-07-12T06:27:52;100724.59;;;35.41;19.70
58757;BME280;44527;47.460;19.016;2022-07-12T06:30:55;100727.94;;;37.76;17.05
58757;BME280;44527;47.460;19.016;2022-07-12T06:33:57;100722.66;;;39.37;15.28
58757;BME280;44527;47.460;19.016;2022-07-12T06:37:00;100720.72;;;40.64;14.38
58757;BME280;44527;47.460;19.016;2022-07-12T06:40:02;100727.84;;;41.70;12.77
58757;BME280;44527;47.460;19.016;2022-07-12T06:43:09;100728.28;;;41.20;13.59
58757;BME280;44527;47.460;19.016;2022-07-12T06:46:13;100724.28;;;37.40;15.71
58757;BME280;44527;47.460;19.016;2022-07-12T06:49:15;100727.84;;;35.93;17.71
58757;BME280;44527;47.460;19.016;2022-07-12T06:52:18;100733.09;;;35.01;18.48
58757;BME280;44527;47.460;19.016;2022-07-12T06:55:20;100728.75;;;34.22;19.19
58757;BME280;44527;47.460;19.016;2022-07-12T06:58:22;100730.16;;;36.48;17.18
58757;BME280;44527;47.460;19.016;2022-07-12T07:01:25;100723.31;;;37.97;15.22
58757;BME280;44527;47.460;19.016;2022-07-12T07:04:27;100726.13;;;39.87;13.98
58757;BME280;44527;47.460;19.016;2022-07-12T07:07:29;100731.47;;;40.07;14.23
58757;BME280;44527;47.460;19.016;2022-07-12T07:10:32;100730.41;;;39.64;13.80
58757;BME280;44527;47.460;19.016;2022-07-12T07:13:35;100722.16;;;40.32;13.31
58757;BME280;44527;47.460;19.016;2022-07-12T07:16:44;100721.66;;;40.54;13.31
58757;BME280;44527;47.460;19.016;2022-07-12T07:19:46;100718.72;;;38.98;14.42
58757;BME280;44527;47.460;19.016;2022-07-12T07:22:49;100719.44;;;35.67;17.53
58757;BME280;44527;47.460;19.016;2022-07-12T07:25:54;100717.50;;;32.76;20.25
58757;BME280;44527;47.460;19.016;2022-07-12T07:28:56;100717.41;;;31.21;22.60
58757;BME280;44527;47.460;19.016;2022-07-12T07:32:17;100712.28;;;30.33;23.98
58757;BME280;44527;47.460;19.016;2022-07-12T07:35:20;100715.94;;;29.57;24.64
58757;BME280;44527;47.460;19.016;2022-07-12T07:38:22;100716.91;;;30.51;23.83
58757;BME280;44527;47.460;19.016;2022-07-12T07:41:24;100715.31;;;31.84;21.84
58757;BME280;44527;47.460;19.016;2022-07-12T07:44:34;100707.44;;;32.29;21.09
58757;BME280;44527;47.460;19.016;2022-07-12T07:47:49;100706.03;;;32.85;20.55
58757;BME280;44527;47.460;19.016;2022-07-12T07:51:11;100707.81;;;33.20;21.13
58757;BME280;44527;47.460;19.016;2022-07-12T07:54:14;100713.84;;;34.30;19.66
58757;BME280;44527;47.460;19.016;2022-07-12T07:57:16;100711.56;;;36.40;16.85
58757;BME280;44527;47.460;19.016;2022-07-12T08:00:18;100714.75;;;35.13;18.16
58757;BME280;44527;47.460;19.016;2022-07-12T08:03:21;100713.94;;;33.27;19.52
58757;BME280;44527;47.460;19.016;2022-07-12T08:06:25;100711.19;;;33.10;19.93
58757;BME280;44527;47.460;19.016;2022-07-12T08:09:28;100709.47;;;33.78;19.17
58757;BME280;44527;47.460;19.016;2022-07-12T08:12:30;100717.34;;;32.00;21.20
58757;BME280;44527;47.460;19.016;2022-07-12T08:15:33;100714.69;;;30.66;23.53
58757;BME280;44527;47.460;19.016;2022-07-12T08:18:35;100708.69;;;29.57;24.48
58757;BME280;44527;47.460;19.016;2022-07-12T08:21:38;100708.63;;;28.60;25.39
58757;BME280;44527;47.460;19.016;2022-07-12T08:24:40;100713.59;;;28.44;26.08
58757;BME280;44527;47.460;19.016;2022-07-12T08:27:42;100710.28;;;27.88;26.81
58757;BME280;44527;47.460;19.016;2022-07-12T08:30:45;100700.38;;;27.27;26.65
58757;BME280;44527;47.460;19.016;2022-07-12T08:33:48;100705.72;;;27.89;26.89
58757;BME280;44527;47.460;19.016;2022-07-12T08:36:51;100692.44;;;28.07;26.18
58757;BME280;44527;47.460;19.016;2022-07-12T08:39:53;100702.63;;;28.32;26.51
58757;BME280;44527;47.460;19.016;2022-07-12T08:42:58;100699.72;;;28.13;26.34
58757;BME280;44527;47.460;19.016;2022-07-12T08:46:06;100698.47;;;28.43;26.49
58757;BME280;44527;47.460;19.016;2022-07-12T08:49:09;100686.81;;;28.49;25.78
58757;BME280;44527;47.460;19.016;2022-07-12T08:52:25;100682.66;;;28.53;26.38
58757;BME280;44527;47.460;19.016;2022-07-12T08:55:33;100690.69;;;28.79;25.45
58757;BME280;44527;47.460;19.016;2022-07-12T08:58:38;100694.09;;;28.08;26.53
58757;BME280;44527;47.460;19.016;2022-07-12T09:01:52;100685.16;;;27.88;27.78
58757;BME280;44527;47.460;19.016;2022-07-12T09:05:07;100678.47;;;27.57;27.93
58757;BME280;44527;47.460;19.016;2022-07-12T09:08:10;100683.12;;;27.15;28.57
58757;BME280;44527;47.460;19.016;2022-07-12T09:11:15;100690.28;;;27.43;27.88
58757;BME280;44527;47.460;19.016;2022-07-12T09:14:19;100690.78;;;28.00;26.98
58757;BME280;44527;47.460;19.016;2022-07-12T09:17:22;100691.16;;;27.77;26.12
58757;BME280;44527;47.460;19.016;2022-07-12T09:20:31;100693.09;;;27.21;27.79
58757;BME280;44527;47.460;19.016;2022-07-12T09:23:34;100682.38;;;27.55;26.67
58757;BME280;44527;47.460;19.016;2022-07-12T09:26:36;100687.25;;;28.12;26.31
58757;BME280;44527;47.460;19.016;2022-07-12T09:29:47;100681.63;;;28.27;26.45
58757;BME280;44527;47.460;19.016;2022-07-12T09:36:23;100685.78;;;28.23;26.05
58757;BME280;44527;47.460;19.016;2022-07-12T09:39:26;100681.41;;;28.35;26.03
58757;BME280;44527;47.460;19.016;2022-07-12T09:42:29;100682.38;;;27.55;26.05
58757;BME280;44527;47.460;19.016;2022-07-12T09:45:32;100681.28;;;27.16;26.95
58757;BME280;44527;47.460;19.016;2022-07-12T09:48:36;100672.00;;;27.52;26.13
58757;BME280;44527;47.460;19.016;2022-07-12T09:51:41;100667.47;;;27.59;26.43
58757;BME280;44527;47.460;19.016;2022-07-12T09:54:45;100672.66;;;27.60;26.89
58757;BME280;44527;47.460;19.016;2022-07-12T09:57:52;100668.63;;;27.16;27.04
58757;BME280;44527;47.460;19.016;2022-07-12T10:00:59;100684.37;;;27.19;25.23
58757;BME280;44527;47.460;19.016;2022-07-12T10:04:05;100673.03;;;26.89;26.20
58757;BME280;44527;47.460;19.016;2022-07-12T10:07:10;100661.88;;;26.99;25.64
58757;BME280;44527;47.460;19.016;2022-07-12T10:10:16;100665.56;;;27.33;25.74
58757;BME280;44527;47.460;19.016;2022-07-12T10:13:19;100658.78;;;27.02;26.15
58757;BME280;44527;47.460;19.016;2022-07-12T10:16:26;100660.37;;;26.83;26.55
58757;BME280;44527;47.460;19.016;2022-07-12T10:19:30;100660.72;;;26.67;26.24
58757;BME280;44527;47.460;19.016;2022-07-12T10:22:34;100651.34;;;26.28;26.67
58757;BME280;44527;47.460;19.016;2022-07-12T10:25:36;100646.78;;;26.56;26.73
58757;BME280;44527;47.460;19.016;2022-07-12T10:29:02;100650.84;;;27.29;26.36
58757;BME280;44527;47.460;19.016;2022-07-12T10:32:34;100658.09;;;27.35;26.89
58757;BME280;44527;47.460;19.016;2022-07-12T10:35:37;100642.84;;;27.82;26.45
58757;BME280;44527;47.460;19.016;2022-07-12T10:38:39;100640.75;;;27.77;25.69
58757;BME280;44527;47.460;19.016;2022-07-12T10:41:42;100638.69;;;28.06;25.03
58757;BME280;44527;47.460;19.016;2022-07-12T10:44:46;100635.28;;;28.63;25.15
58757;BME280;44527;47.460;19.016;2022-07-12T10:48:00;100638.03;;;28.24;25.02
58757;BME280;44527;47.460;19.016;2022-07-12T10:51:16;100639.25;;;28.54;25.15
58757;BME280;44527;47.460;19.016;2022-07-12T10:54:22;100644.56;;;28.81;25.60
58757;BME280;44527;47.460;19.016;2022-07-12T10:57:56;100640.06;;;28.55;25.46
58757;BME280;44527;47.460;19.016;2022-07-12T11:01:02;100656.44;;;27.34;29.05
58757;BME280;44527;47.460;19.016;2022-07-12T11:04:05;100680.31;;;26.04;34.55
58757;BME280;44527;47.460;19.016;2022-07-12T11:07:09;100700.22;;;24.80;41.98
58757;BME280;44527;47.460;19.016;2022-07-12T11:10:12;100702.38;;;24.08;48.82
58757;BME280;44527;47.460;19.016;2022-07-12T11:13:22;100694.31;;;23.94;44.44
58757;BME280;44527;47.460;19.016;2022-07-12T11:16:28;100684.53;;;24.01;42.40
58757;BME280;44527;47.460;19.016;2022-07-12T11:19:32;100684.56;;;24.16;41.33
58757;BME280;44527;47.460;19.016;2022-07-12T11:22:37;100684.81;;;24.44;40.52
58757;BME280;44527;47.460;19.016;2022-07-12T11:25:39;100679.38;;;24.52;40.55
58757;BME280;44527;47.460;19.016;2022-07-12T11:28:48;100677.69;;;24.95;38.74
58757;BME280;44527;47.460;19.016;2022-07-12T11:32:03;100678.97;;;24.99;37.72
58757;BME280;44527;47.460;19.016;2022-07-12T11:35:23;100678.97;;;25.51;37.92
58757;BME280;44527;47.460;19.016;2022-07-12T11:38:26;100661.06;;;25.79;35.76
58757;BME280;44527;47.460;19.016;2022-07-12T11:41:35;100656.03;;;26.19;34.12
58757;BME280;44527;47.460;19.016;2022-07-12T11:44:45;100653.09;;;26.77;33.13
58757;BME280;44527;47.460;19.016;2022-07-12T11:47:47;100631.53;;;27.18;32.69
58757;BME280;44527;47.460;19.016;2022-07-12T11:50:51;100629.50;;;27.47;31.68
58757;BME280;44527;47.460;19.016;2022-07-12T11:53:54;100617.53;;;26.88;31.43
58757;BME280;44527;47.460;19.016;2022-07-12T11:57:10;100629.19;;;26.54;30.86
58757;BME280;44527;47.460;19.016;2022-07-12T12:03:19;100613.91;;;26.68;28.24
58757;BME280;44527;47.460;19.016;2022-07-12T12:06:21;100606.03;;;26.31;27.94
58757;BME280;44527;47.460;19.016;2022-07-12T12:09:24;100604.72;;;26.49;27.83
58757;BME280;44527;47.460;19.016;2022-07-12T12:12:35;100625.88;;;26.58;27.27
58757;BME280;44527;47.460;19.016;2022-07-12T12:15:38;100612.25;;;26.67;27.21
58757;BME280;44527;47.460;19.016;2022-07-12T12:18:41;100612.97;;;26.89;28.21
58757;BME280;44527;47.460;19.016;2022-07-12T12:21:44;100613.69;;;27.17;26.21
58757;BME280;44527;47.460;19.016;2022-07-12T12:25:04;100595.56;;;26.91;27.28
58757;BME280;44527;47.460;19.016;2022-07-12T12:28:08;100591.59;;;26.80;26.76
58757;BME280;44527;47.460;19.016;2022-07-12T12:31:18;100591.19;;;26.90;26.91
58757;BME280;44527;47.460;19.016;2022-07-12T12:34:21;100585.59;;;26.85;26.33
58757;BME280;44527;47.460;19.016;2022-07-12T12:37:23;100576.31;;;26.94;25.73
58757;BME280;44527;47.460;19.016;2022-07-12T12:40:29;100582.63;;;27.21;25.45
58757;BME280;44527;47.460;19.016;2022-07-12T12:43:31;100587.62;;;27.44;25.69
58757;BME280;44527;47.460;19.016;2022-07-12T12:46:55;100589.25;;;27.19;24.99
58757;BME280;44527;47.460;19.016;2022-07-12T12:49:59;100596.16;;;27.61;25.44
58757;BME280;44527;47.460;19.016;2022-07-12T12:53:21;100579.03;;;28.34;24.91
58757;BME280;44527;47.460;19.016;2022-07-12T12:56:24;100587.38;;;28.91;23.98
58757;BME280;44527;47.460;19.016;2022-07-12T12:59:26;100595.41;;;28.66;24.77
58757;BME280;44527;47.460;19.016;2022-07-12T13:02:29;100596.16;;;28.01;25.03
58757;BME280;44527;47.460;19.016;2022-07-12T13:05:31;100596.13;;;27.75;24.58
58757;BME280;44527;47.460;19.016;2022-07-12T13:08:33;100588.84;;;27.35;24.39
58757;BME280;44527;47.460;19.016;2022-07-12T13:11:36;100584.38;;;26.88;24.07
58757;BME280;44527;47.460;19.016;2022-07-12T13:14:38;100566.66;;;27.26;24.67
58757;BME280;44527;47.460;19.016;2022-07-12T13:17:41;100568.97;;;27.63;24.75
58757;BME280;44527;47.460;19.016;2022-07-12T13:20:43;100559.00;;;27.70;23.75
58757;BME280;44527;47.460;19.016;2022-07-12T13:23:45;100569.00;;;27.83;24.06
58757;BME280;44527;47.460;19.016;2022-07-12T13:26:48;100567.28;;;27.15;22.34
58757;BME280;44527;47.460;19.016;2022-07-12T13:29:50;100563.88;;;26.93;21.97
58757;BME280;44527;47.460;19.016;2022-07-12T13:32:52;100566.47;;;26.60;23.43
58757;BME280;44527;47.460;19.016;2022-07-12T13:35:57;100571.06;;;26.66;23.54
58757;BME280;44527;47.460;19.016;2022-07-12T13:38:59;100560.88;;;26.62;23.94
58757;BME280;44527;47.460;19.016;2022-07-12T13:42:21;100554.06;;;26.31;24.25
58757;BME280;44527;47.460;19.016;2022-07-12T13:45:24;100560.53;;;26.36;23.94
58757;BME280;44527;47.460;19.016;2022-07-12T13:48:27;100570.16;;;26.59;23.46
58757;BME280;44527;47.460;19.016;2022-07-12T13:51:36;100574.19;;;26.83;23.33
58757;BME280;44527;47.460;19.016;2022-07-12T13:54:40;100563.88;;;26.93;23.74
58757;BME280;44527;47.460;19.016;2022-07-12T13:57:43;100557.91;;;27.11;23.03
58757;BME280;44527;47.460;19.016;2022-07-12T14:00:46;100557.66;;;26.99;22.66
58757;BME280;44527;47.460;19.016;2022-07-12T14:03:48;100550.38;;;26.87;23.62
58757;BME280;44527;47.460;19.016;2022-07-12T14:06:50;100548.31;;;26.82;22.49
58757;BME280;44527;47.460;19.016;2022-07-12T14:09:53;100557.81;;;26.78;22.56
58757;BME280;44527;47.460;19.016;2022-07-12T14:12:55;100545.81;;;26.87;22.75
58757;BME280;44527;47.460;19.016;2022-07-12T14:15:58;100544.00;;;27.08;23.13
58757;BME280;44527;47.460;19.016;2022-07-12T14:19:01;100548.16;;;27.03;23.24
58757;BME280;44527;47.460;19.016;2022-07-12T14:22:03;100532.97;;;26.83;23.21
58757;BME280;44527;47.460;19.016;2022-07-12T14:25:07;100547.09;;;26.91;23.28
58757;BME280;44527;47.460;19.016;2022-07-12T14:28:09;100540.22;;;26.75;23.68
58757;BME280;44527;47.460;19.016;2022-07-12T14:31:12;100548.87;;;26.71;23.75
58757;BME280;44527;47.460;19.016;2022-07-12T14:34:14;100538.91;;;26.58;23.92
58757;BME280;44527;47.460;19.016;2022-07-12T14:37:16;100541.06;;;26.34;23.37
58757;BME280;44527;47.460;19.016;2022-07-12T14:40:19;100542.03;;;25.92;24.22
58757;BME280;44527;47.460;19.016;2022-07-12T14:43:21;100545.72;;;25.84;24.46
58757;BME280;44527;47.460;19.016;2022-07-12T14:46:24;100544.41;;;25.80;24.80
58757;BME280;44527;47.460;19.016;2022-07-12T14:49:26;100541.66;;;25.95;25.30
58757;BME280;44527;47.460;19.016;2022-07-12T14:52:31;100530.31;;;26.00;24.60
58757;BME280;44527;47.460;19.016;2022-07-12T14:55:33;100542.56;;;25.81;24.92
58757;BME280;44527;47.460;19.016;2022-07-12T14:58:35;100548.13;;;25.51;24.90
58757;BME280;44527;47.460;19.016;2022-07-12T15:01:38;100555.06;;;25.39;25.97
58757;BME280;44527;47.460;19.016;2022-07-12T15:04:40;100551.19;;;25.48;25.65
58757;BME280;44527;47.460;19.016;2022-07-12T15:07:42;100546.72;;;25.55;25.82
58757;BME280;44527;47.460;19.016;2022-07-12T15:10:47;100545.94;;;25.61;25.43
58757;BME280;44527;47.460;19.016;2022-07-12T15:13:49;100552.37;;;25.39;25.82
58757;BME280;44527;47.460;19.016;2022-07-12T15:16:51;100554.59;;;25.35;26.25
58757;BME280;44527;47.460;19.016;2022-07-12T15:19:53;100545.53;;;25.15;26.27
58757;BME280;44527;47.460;19.016;2022-07-12T15:22:56;100545.44;;;25.08;26.83
58757;BME280;44527;47.460;19.016;2022-07-12T15:25:58;100552.94;;;25.13;26.65
58757;BME280;44527;47.460;19.016;2022-07-12T15:29:02;100561.09;;;25.19;26.19
58757;BME280;44527;47.460;19.016;2022-07-12T15:32:05;100549.94;;;25.23;26.27
58757;BME280;44527;47.460;19.016;2022-07-12T15:35:08;100557.16;;;25.22;26.59
58757;BME280;44527;47.460;19.016;2022-07-12T15:38:10;100552.81;;;25.21;27.02
58757;BME280;44527;47.460;19.016;2022-07-12T15:41:13;100555.06;;;25.17;27.06
58757;BME280;44527;47.460;19.016;2022-07-12T15:44:17;100559.97;;;25.14;27.59
58757;BME280;44527;47.460;19.016;2022-07-12T15:47:21;100556.34;;;25.07;27.76
58757;BME280;44527;47.460;19.016;2022-07-12T15:50:23;100560.09;;;24.91;28.23
58757;BME280;44527;47.460;19.016;2022-07-12T15:53:26;100557.31;;;24.63;29.22
58757;BME280;44527;47.460;19.016;2022-07-12T15:56:41;100553.16;;;24.45;29.42
58757;BME280;44527;47.460;19.016;2022-07-12T15:59:44;100555.47;;;24.34;30.03